createdAt,value
2017-08-19T00:01:41.498Z,21.00
2017-08-19T00:04:08.276Z,21.00
2017-08-19T00:06:35.456Z,20.80
2017-08-19T00:09:01.904Z,20.80
2017-08-19T00:11:28.315Z,20.80
2017-08-19T00:13:54.715Z,20.80
2017-08-19T00:16:21.163Z,20.70
2017-08-19T00:18:48.311Z,20.70
2017-08-19T00:21:15.463Z,20.70
2017-08-19T00:23:42.629Z,20.60
2017-08-19T00:26:09.022Z,20.60
2017-08-19T00:28:35.415Z,20.60
2017-08-19T00:31:01.832Z,20.50
2017-08-19T00:33:28.263Z,20.40
2017-08-19T00:35:54.847Z,20.40
2017-08-19T00:38:21.250Z,20.40
2017-08-19T00:40:47.685Z,20.50
2017-08-19T00:43:14.097Z,20.50
2017-08-19T00:45:40.550Z,20.50
2017-08-19T00:48:06.965Z,20.40
2017-08-19T00:50:33.419Z,20.50
2017-08-19T00:52:59.859Z,20.50
2017-08-19T00:55:26.324Z,20.40
2017-08-19T00:57:52.750Z,20.30
2017-08-19T01:00:19.171Z,20.30
2017-08-19T01:02:45.604Z,20.20
2017-08-19T01:05:12.067Z,20.30
2017-08-19T01:07:39.259Z,20.20
2017-08-19T01:10:05.727Z,20.20
2017-08-19T01:12:32.150Z,20.20
2017-08-19T01:14:58.547Z,20.20
2017-08-19T01:17:25.165Z,20.30
2017-08-19T01:19:52.352Z,20.20
2017-08-19T01:22:18.846Z,20.20
2017-08-19T01:24:46.034Z,20.20
2017-08-19T01:27:12.464Z,20.20
2017-08-19T01:29:38.876Z,20.20
2017-08-19T01:32:05.279Z,20.20
2017-08-19T01:34:31.716Z,20.20
2017-08-19T01:36:58.106Z,20.20
2017-08-19T01:39:24.573Z,20.20
2017-08-19T01:41:51.001Z,20.20
2017-08-19T01:44:17.455Z,20.30
2017-08-19T01:46:44.627Z,20.30
2017-08-19T01:49:11.042Z,20.30
2017-08-19T01:51:38.183Z,20.30
2017-08-19T01:54:05.334Z,20.30
2017-08-19T01:56:32.471Z,20.30
2017-08-19T01:58:58.887Z,20.30
2017-08-19T02:01:25.299Z,20.30
2017-08-19T02:03:51.705Z,20.30
2017-08-19T02:06:18.120Z,20.30
2017-08-19T02:08:45.266Z,20.30
2017-08-19T02:11:12.423Z,20.30
2017-08-19T02:13:39.560Z,20.40
2017-08-19T02:16:05.946Z,20.30
2017-08-19T02:18:32.348Z,20.30
2017-08-19T02:20:59.638Z,20.40
2017-08-19T02:23:26.042Z,20.30
2017-08-19T02:25:52.445Z,20.40
2017-08-19T02:28:18.857Z,20.30
2017-08-19T02:30:45.256Z,20.30
2017-08-19T02:33:11.659Z,20.30
2017-08-19T02:35:38.084Z,20.30
2017-08-19T02:38:05.234Z,20.30
2017-08-19T02:40:32.363Z,20.30
2017-08-19T02:42:58.823Z,20.20
2017-08-19T02:45:25.248Z,20.20
2017-08-19T02:47:52.406Z,20.30
2017-08-19T02:50:19.555Z,20.40
2017-08-19T02:52:46.794Z,20.40
2017-08-19T02:55:13.187Z,20.40
2017-08-19T02:57:39.631Z,20.40
2017-08-19T03:00:06.091Z,20.40
2017-08-19T03:02:32.506Z,20.40
2017-08-19T03:04:58.922Z,20.30
2017-08-19T03:07:25.351Z,20.30
2017-08-19T03:09:51.750Z,20.30
2017-08-19T03:12:18.155Z,20.30
2017-08-19T03:14:44.536Z,20.30
2017-08-19T03:17:10.932Z,20.30
2017-08-19T03:19:38.095Z,20.30
2017-08-19T03:22:04.495Z,20.30
2017-08-19T03:24:30.911Z,20.20
2017-08-19T03:26:57.385Z,20.20
2017-08-19T03:29:23.824Z,20.30
2017-08-19T03:31:50.220Z,20.20
2017-08-19T03:34:16.618Z,20.10
2017-08-19T03:36:43.051Z,20.20
2017-08-19T03:39:09.479Z,20.30
2017-08-19T03:41:35.879Z,20.20
2017-08-19T03:44:03.019Z,20.10
2017-08-19T03:46:29.492Z,20.10
2017-08-19T03:48:55.922Z,20.10
2017-08-19T03:51:22.315Z,20.20
2017-08-19T03:53:49.507Z,20.20
2017-08-19T03:56:15.949Z,20.20
2017-08-19T03:58:42.383Z,20.20
2017-08-19T04:01:08.823Z,20.10
2017-08-19T04:03:35.258Z,20.20
2017-08-19T04:06:01.678Z,20.10
2017-08-19T04:08:28.096Z,20.00
2017-08-19T04:10:54.491Z,20.00
2017-08-19T04:13:20.914Z,20.00
2017-08-19T04:15:47.334Z,20.00
2017-08-19T04:18:13.734Z,19.90
2017-08-19T04:20:44.324Z,19.90
2017-08-19T04:23:11.463Z,19.90
2017-08-19T04:25:37.869Z,19.80
2017-08-19T04:28:04.310Z,19.80
2017-08-19T04:30:30.723Z,19.80
2017-08-19T04:32:57.147Z,19.80
2017-08-19T04:35:23.551Z,19.80
2017-08-19T04:37:55.581Z,19.80
2017-08-19T04:40:22.103Z,19.80
2017-08-19T04:42:48.570Z,19.90
2017-08-19T04:45:15.711Z,20.00
2017-08-19T04:47:42.182Z,20.00
2017-08-19T04:50:08.586Z,20.00
2017-08-19T04:52:34.999Z,19.90
2017-08-19T04:55:03.557Z,19.80
2017-08-19T04:57:30.109Z,19.80
2017-08-19T04:59:56.497Z,19.80
2017-08-19T05:02:22.905Z,19.80
2017-08-19T05:04:49.363Z,19.80
2017-08-19T05:07:15.771Z,19.80
2017-08-19T05:09:42.202Z,19.70
2017-08-19T05:12:08.586Z,19.90
2017-08-19T05:14:34.992Z,19.70
2017-08-19T05:17:05.054Z,19.70
2017-08-19T05:19:31.751Z,19.70
2017-08-19T05:21:58.200Z,19.60
2017-08-19T05:24:24.649Z,19.70
2017-08-19T05:26:51.026Z,19.70
2017-08-19T05:29:17.434Z,19.60
2017-08-19T05:31:43.907Z,19.50
2017-08-19T05:34:11.039Z,19.60
2017-08-19T05:36:37.471Z,19.60
2017-08-19T05:39:03.959Z,19.50
2017-08-19T05:41:30.361Z,19.60
2017-08-19T05:43:57.531Z,19.80
2017-08-19T05:46:23.998Z,19.70
2017-08-19T05:48:50.387Z,19.80
2017-08-19T05:51:16.797Z,19.70
2017-08-19T05:53:44.020Z,19.70
2017-08-19T05:56:15.544Z,19.60
2017-08-19T05:58:43.646Z,19.90
2017-08-19T06:01:10.077Z,19.90
2017-08-19T06:03:36.479Z,19.80
2017-08-19T06:06:02.899Z,19.70
2017-08-19T06:08:29.439Z,19.80
2017-08-19T06:10:55.847Z,19.80
2017-08-19T06:13:23.001Z,19.60
2017-08-19T06:15:50.153Z,19.70
2017-08-19T06:18:17.279Z,19.70
2017-08-19T06:20:43.698Z,19.70
2017-08-19T06:23:10.118Z,19.70
2017-08-19T06:25:36.523Z,19.80
2017-08-19T06:28:02.914Z,19.70
2017-08-19T06:30:30.058Z,19.50
2017-08-19T06:32:56.467Z,19.50
2017-08-19T06:35:22.878Z,19.50
2017-08-19T06:37:49.278Z,19.60
2017-08-19T06:40:15.695Z,19.70
2017-08-19T06:42:42.083Z,19.70
2017-08-19T06:45:08.494Z,19.80
2017-08-19T06:47:34.975Z,19.80
2017-08-19T06:50:05.179Z,19.80
2017-08-19T06:52:31.872Z,19.80
2017-08-19T06:54:59.015Z,19.70
2017-08-19T06:57:26.134Z,19.80
2017-08-19T06:59:52.615Z,19.70
2017-08-19T07:02:19.030Z,19.90
2017-08-19T07:04:46.166Z,20.00
2017-08-19T07:07:13.327Z,20.00
2017-08-19T07:09:40.466Z,20.00
2017-08-19T07:12:06.894Z,19.90
2017-08-19T07:14:33.295Z,19.90
2017-08-19T07:17:00.603Z,19.90
2017-08-19T07:19:27.751Z,19.90
2017-08-19T07:21:54.927Z,19.90
2017-08-19T07:24:21.330Z,19.80
2017-08-19T07:26:49.409Z,19.90
2017-08-19T07:29:15.839Z,19.90
2017-08-19T07:31:42.999Z,20.00
2017-08-19T07:34:09.411Z,20.00
2017-08-19T07:36:36.583Z,20.00
2017-08-19T07:39:03.087Z,20.00
2017-08-19T07:41:29.522Z,19.90
2017-08-19T07:43:55.919Z,19.90
2017-08-19T07:46:22.315Z,19.90
2017-08-19T07:48:48.883Z,20.00
2017-08-19T07:51:15.309Z,20.00
2017-08-19T07:53:44.055Z,20.10
2017-08-19T07:56:11.002Z,20.10
2017-08-19T07:58:38.145Z,20.20
2017-08-19T08:01:05.282Z,20.20
2017-08-19T08:03:31.711Z,20.20
2017-08-19T08:05:58.113Z,20.20
2017-08-19T08:08:24.531Z,20.20
2017-08-19T08:10:50.951Z,20.30
2017-08-19T08:13:17.382Z,20.20
2017-08-19T08:15:43.787Z,20.20
2017-08-19T08:18:10.980Z,20.30
2017-08-19T08:20:37.431Z,20.30
2017-08-19T08:23:04.126Z,20.20
2017-08-19T08:25:31.286Z,20.20
2017-08-19T08:27:57.710Z,20.10
2017-08-19T08:30:24.855Z,20.20
2017-08-19T08:32:52.027Z,20.10
2017-08-19T08:35:18.427Z,20.10
2017-08-19T08:37:44.838Z,20.20
2017-08-19T08:40:11.246Z,20.10
2017-08-19T08:42:37.645Z,20.20
2017-08-19T08:45:04.035Z,20.10
2017-08-19T08:47:30.454Z,20.10
2017-08-19T08:49:56.946Z,20.10
2017-08-19T08:52:23.354Z,20.00
2017-08-19T08:54:49.770Z,20.00
2017-08-19T08:57:16.208Z,20.00
2017-08-19T08:59:43.809Z,20.00
2017-08-19T09:02:10.217Z,20.00
2017-08-19T09:04:36.631Z,20.00
2017-08-19T09:07:03.075Z,20.00
2017-08-19T09:09:29.470Z,19.90
2017-08-19T09:11:56.994Z,19.90
2017-08-19T09:14:24.132Z,19.90
2017-08-19T09:16:51.262Z,20.10
2017-08-19T09:19:17.678Z,20.10
2017-08-19T09:21:44.086Z,20.10
2017-08-19T09:24:10.687Z,20.00
2017-08-19T09:26:37.823Z,20.10
2017-08-19T09:29:04.232Z,20.00
2017-08-19T09:31:30.627Z,20.10
2017-08-19T09:33:57.018Z,20.10
2017-08-19T09:36:26.654Z,20.10
2017-08-19T09:38:53.070Z,20.10
2017-08-19T09:41:20.200Z,20.10
2017-08-19T09:43:46.614Z,20.20
2017-08-19T09:46:13.019Z,20.20
2017-08-19T09:48:39.425Z,20.10
2017-08-19T09:51:06.588Z,20.10
2017-08-19T09:53:33.007Z,20.10
2017-08-19T09:56:00.190Z,20.10
2017-08-19T09:58:31.940Z,20.10
2017-08-19T10:01:00.395Z,20.40
2017-08-19T10:03:27.543Z,20.40
2017-08-19T10:05:54.682Z,20.40
2017-08-19T10:08:33.363Z,20.40
2017-08-19T10:11:25.929Z,20.40
2017-08-19T10:13:52.335Z,20.40
2017-08-19T10:16:18.761Z,20.30
2017-08-19T10:18:45.206Z,20.30
2017-08-19T10:21:11.618Z,20.40
2017-08-19T10:23:38.027Z,20.40
2017-08-19T10:26:05.226Z,20.70
2017-08-19T10:28:31.646Z,20.70
2017-08-19T10:30:58.090Z,20.80
2017-08-19T10:33:24.515Z,20.80
2017-08-19T10:35:50.975Z,20.80
2017-08-19T10:38:17.386Z,20.90
2017-08-19T10:40:43.815Z,21.00
2017-08-19T10:43:10.276Z,21.00
2017-08-19T10:45:36.671Z,21.10
2017-08-19T10:48:03.092Z,21.20
2017-08-19T10:50:29.502Z,21.40
2017-08-19T10:52:56.650Z,21.70
2017-08-19T10:55:23.807Z,21.80
2017-08-19T10:57:50.964Z,21.80
2017-08-19T11:00:18.123Z,21.80
2017-08-19T11:02:44.544Z,21.70
2017-08-19T11:05:10.942Z,21.80
2017-08-19T11:07:37.363Z,21.70
2017-08-19T11:10:04.570Z,21.70
2017-08-19T11:12:30.978Z,21.80
2017-08-19T11:14:58.119Z,21.60
2017-08-19T11:17:24.514Z,21.60
2017-08-19T11:19:50.926Z,21.70
2017-08-19T11:22:17.337Z,21.70
2017-08-19T11:24:44.478Z,21.60
2017-08-19T11:27:11.658Z,21.50
2017-08-19T11:29:38.082Z,21.50
2017-08-19T11:32:04.672Z,21.50
2017-08-19T11:34:31.079Z,21.50
2017-08-19T11:36:57.510Z,21.60
2017-08-19T11:39:24.666Z,21.70
2017-08-19T11:41:51.050Z,21.70
2017-08-19T11:44:18.190Z,21.60
2017-08-19T11:46:44.602Z,21.60
2017-08-19T11:49:11.019Z,21.80
2017-08-19T11:51:37.429Z,21.90
2017-08-19T11:54:03.875Z,22.00
2017-08-19T11:56:30.298Z,22.00
2017-08-19T11:58:56.687Z,21.90
2017-08-19T12:01:23.098Z,21.90
2017-08-19T12:03:49.502Z,22.00
2017-08-19T12:06:15.910Z,22.00
2017-08-19T12:08:43.074Z,22.00
2017-08-19T12:11:09.470Z,21.90
2017-08-19T12:13:35.894Z,21.90
2017-08-19T12:16:02.314Z,22.10
2017-08-19T12:18:31.486Z,22.10
2017-08-19T12:20:57.874Z,22.20
2017-08-19T12:23:25.071Z,21.90
2017-08-19T12:25:51.471Z,21.90
2017-08-19T12:28:17.866Z,21.70
2017-08-19T12:30:44.282Z,21.70
2017-08-19T12:33:11.455Z,21.60
2017-08-19T12:35:38.211Z,21.60
2017-08-19T12:38:04.667Z,21.60
2017-08-19T12:40:31.082Z,21.60
2017-08-19T12:42:58.211Z,21.70
2017-08-19T12:45:24.610Z,21.70
2017-08-19T12:47:51.008Z,21.60
2017-08-19T12:50:17.397Z,21.60
2017-08-19T12:52:43.823Z,21.70
2017-08-19T12:55:10.207Z,21.60
2017-08-19T12:57:36.631Z,21.70
2017-08-19T13:00:03.799Z,21.90
2017-08-19T13:02:30.182Z,21.90
2017-08-19T13:04:56.571Z,22.00
2017-08-19T13:07:22.985Z,22.00
2017-08-19T13:09:49.399Z,22.00
2017-08-19T13:12:16.558Z,22.10
2017-08-19T13:14:43.719Z,21.80
2017-08-19T13:17:10.122Z,21.80
2017-08-19T13:19:36.778Z,21.80
2017-08-19T13:22:03.972Z,21.90
2017-08-19T13:24:30.395Z,21.80
2017-08-19T13:26:56.811Z,21.90
2017-08-19T13:29:23.231Z,21.90
2017-08-19T13:31:50.414Z,22.00
2017-08-19T13:34:16.886Z,21.90
2017-08-19T13:36:43.290Z,22.00
2017-08-19T13:39:09.704Z,21.90
2017-08-19T13:41:36.139Z,21.90
2017-08-19T13:44:02.559Z,22.00
2017-08-19T13:46:28.995Z,22.00
2017-08-19T13:48:55.399Z,21.90
2017-08-19T13:51:22.569Z,21.90
2017-08-19T13:53:49.155Z,21.90
2017-08-19T13:56:15.580Z,22.00
2017-08-19T13:58:41.975Z,22.00
2017-08-19T14:01:08.394Z,22.00
2017-08-19T14:03:35.536Z,22.10
2017-08-19T14:06:02.682Z,22.10
2017-08-19T14:08:29.830Z,22.10
2017-08-19T14:10:56.244Z,22.10
2017-08-19T14:13:22.681Z,22.10
2017-08-19T14:15:49.074Z,22.10
2017-08-19T14:18:15.509Z,22.00
2017-08-19T14:20:41.934Z,21.90
2017-08-19T14:23:08.367Z,21.90
2017-08-19T14:25:34.794Z,21.80
2017-08-19T14:28:01.209Z,21.90
2017-08-19T14:30:28.367Z,21.70
2017-08-19T14:32:54.791Z,21.70
2017-08-19T14:35:21.943Z,21.70
2017-08-19T14:37:49.150Z,21.70
2017-08-19T14:40:15.551Z,21.70
2017-08-19T14:42:41.961Z,21.70
2017-08-19T14:45:09.122Z,21.80
2017-08-19T14:47:36.277Z,21.70
2017-08-19T14:50:02.699Z,21.70
2017-08-19T14:52:29.837Z,21.70
2017-08-19T14:54:56.980Z,21.70
2017-08-19T14:57:24.887Z,21.70
2017-08-19T14:59:51.278Z,21.80
2017-08-19T15:02:17.711Z,21.80
2017-08-19T15:04:44.187Z,21.90
2017-08-19T15:07:10.607Z,21.80
2017-08-19T15:09:37.006Z,21.70
2017-08-19T15:12:03.419Z,21.60
2017-08-19T15:14:29.827Z,21.60
2017-08-19T15:17:05.867Z,21.70
2017-08-19T15:19:32.484Z,21.60
2017-08-19T15:21:59.619Z,21.50
2017-08-19T15:24:26.066Z,21.40
2017-08-19T15:26:53.227Z,21.50
2017-08-19T15:29:20.375Z,21.60
2017-08-19T15:31:46.770Z,21.60
2017-08-19T15:34:13.194Z,21.60
2017-08-19T15:36:39.602Z,21.70
2017-08-19T15:39:06.011Z,21.60
2017-08-19T15:41:33.156Z,21.60
2017-08-19T15:43:59.578Z,21.60
2017-08-19T15:46:26.727Z,21.50
2017-08-19T15:48:53.878Z,21.50
2017-08-19T15:51:21.030Z,21.40
2017-08-19T15:53:48.241Z,21.50
2017-08-19T15:56:14.662Z,21.50
2017-08-19T15:58:41.080Z,21.60
2017-08-19T16:01:07.495Z,21.60
2017-08-19T16:03:33.902Z,21.50
2017-08-19T16:06:00.310Z,21.50
2017-08-19T16:08:26.724Z,21.50
2017-08-19T16:10:53.215Z,21.30
2017-08-19T16:13:19.626Z,21.30
2017-08-19T16:15:46.023Z,21.30
2017-08-19T16:18:12.420Z,21.30
2017-08-19T16:20:39.580Z,21.10
2017-08-19T16:23:05.994Z,21.10
2017-08-19T16:28:03.004Z,21.00
2017-08-19T16:30:29.458Z,21.00
2017-08-19T16:32:55.878Z,21.10
2017-08-19T16:35:22.292Z,21.00
2017-08-19T16:37:48.708Z,21.00
2017-08-19T16:40:15.123Z,20.90
2017-08-19T16:42:42.270Z,20.90
2017-08-19T16:45:09.434Z,20.90
2017-08-19T16:47:37.630Z,20.90
2017-08-19T16:50:04.947Z,20.90
2017-08-19T16:52:32.103Z,20.90
2017-08-19T16:54:59.235Z,20.90
2017-08-19T16:57:25.714Z,20.90
2017-08-19T16:59:52.135Z,20.90
2017-08-19T17:02:18.554Z,20.80
2017-08-19T17:04:45.708Z,20.70
2017-08-19T17:07:12.854Z,20.50
2017-08-19T17:09:40.027Z,20.50
2017-08-19T17:12:06.431Z,20.50
2017-08-19T17:14:32.904Z,20.50
2017-08-19T17:17:00.062Z,20.60
2017-08-19T17:19:26.466Z,20.80
2017-08-19T17:21:52.856Z,20.60
2017-08-19T17:24:19.287Z,20.60
2017-08-19T17:26:45.694Z,20.70
2017-08-19T17:29:12.090Z,20.60
2017-08-19T17:31:38.478Z,20.40
2017-08-19T17:34:04.882Z,20.30
2017-08-19T17:36:31.291Z,20.30
2017-08-19T17:38:57.705Z,20.20
2017-08-19T17:41:24.883Z,20.10
2017-08-19T17:43:51.383Z,20.10
2017-08-19T17:46:18.521Z,20.00
2017-08-19T17:48:44.927Z,20.00
2017-08-19T17:51:11.387Z,20.10
2017-08-19T17:53:37.820Z,20.10
2017-08-19T17:56:04.260Z,20.00
2017-08-19T17:58:30.654Z,19.90
2017-08-19T18:00:57.058Z,20.00
2017-08-19T18:03:23.536Z,20.00
2017-08-19T18:05:49.967Z,20.00
2017-08-19T18:08:16.386Z,20.00
2017-08-19T18:10:42.795Z,19.90
2017-08-19T18:13:09.211Z,19.90
2017-08-19T18:15:35.688Z,19.80
2017-08-19T18:18:02.126Z,19.90
2017-08-19T18:20:28.545Z,19.90
2017-08-19T18:22:54.959Z,19.80
2017-08-19T18:25:21.374Z,19.90
2017-08-19T18:27:47.799Z,19.80
2017-08-19T18:30:14.969Z,19.90
2017-08-19T18:32:41.411Z,19.80
2017-08-19T18:35:07.822Z,19.90
2017-08-19T18:37:34.987Z,19.90
2017-08-19T18:40:01.390Z,19.80
2017-08-19T18:42:28.547Z,19.90
2017-08-19T18:44:55.694Z,19.90
2017-08-19T18:47:22.884Z,19.90
2017-08-19T18:49:49.282Z,19.90
2017-08-19T18:52:16.446Z,19.90
2017-08-19T18:54:42.880Z,19.80
2017-08-19T18:57:09.364Z,19.80
2017-08-19T18:59:35.788Z,19.80
2017-08-19T19:02:02.208Z,19.70
2017-08-19T19:04:28.618Z,19.70
2017-08-19T19:06:55.254Z,19.70
2017-08-19T19:09:21.662Z,19.50
2017-08-19T19:11:48.840Z,19.50
2017-08-19T19:14:15.270Z,19.50
2017-08-19T19:16:41.710Z,19.50
2017-08-19T19:19:08.110Z,19.50
2017-08-19T19:21:34.578Z,19.60
2017-08-19T19:24:01.014Z,19.60
2017-08-19T19:26:27.426Z,19.60
2017-08-19T19:28:53.831Z,19.40
2017-08-19T19:31:20.257Z,19.30
2017-08-19T19:33:47.091Z,19.30
2017-08-19T19:36:13.513Z,19.30
2017-08-19T19:38:39.972Z,19.30
2017-08-19T19:41:06.403Z,19.30
2017-08-19T19:43:32.819Z,19.30
2017-08-19T19:45:59.224Z,19.30
2017-08-19T19:48:25.659Z,19.20
2017-08-19T19:50:52.123Z,19.30
2017-08-19T19:53:18.575Z,19.20
2017-08-19T19:55:44.997Z,19.20
2017-08-19T19:58:11.419Z,19.30
2017-08-19T20:00:39.071Z,19.20
2017-08-19T20:03:05.491Z,19.20
2017-08-19T20:05:31.944Z,19.20
2017-08-19T20:07:58.372Z,19.10
2017-08-19T20:10:24.786Z,19.10
2017-08-19T20:12:51.235Z,19.10
2017-08-19T20:15:17.796Z,19.20
2017-08-19T20:17:45.003Z,19.20
2017-08-19T20:20:11.443Z,19.20
2017-08-19T20:22:37.870Z,19.20
2017-08-19T20:25:04.296Z,19.30
2017-08-19T20:27:30.748Z,19.20
2017-08-19T20:29:57.163Z,19.10
2017-08-19T20:32:23.607Z,19.10
2017-08-19T20:34:50.023Z,19.10
2017-08-19T20:37:16.851Z,19.10
2017-08-19T20:39:48.838Z,19.10
2017-08-19T20:42:17.231Z,19.00
2017-08-19T20:44:43.663Z,19.00
2017-08-19T20:47:10.066Z,19.00
2017-08-19T20:49:36.488Z,19.00
2017-08-19T20:52:03.651Z,19.00
2017-08-19T20:54:30.038Z,19.00
2017-08-19T20:56:56.439Z,19.00
2017-08-19T20:59:22.889Z,18.90
2017-08-19T21:01:49.303Z,18.90
2017-08-19T21:04:15.718Z,18.90
2017-08-19T21:06:42.135Z,18.90
2017-08-19T21:09:08.587Z,18.80
2017-08-19T21:11:34.991Z,19.00
2017-08-19T21:14:01.421Z,19.10
2017-08-19T21:16:28.578Z,18.90
2017-08-19T21:18:55.794Z,18.80
2017-08-19T21:21:22.205Z,18.70
2017-08-19T21:23:48.778Z,18.80
2017-08-19T21:26:15.202Z,18.80
2017-08-19T21:28:41.612Z,18.90
2017-08-19T21:31:08.018Z,18.90
2017-08-19T21:33:34.434Z,18.90
2017-08-19T21:36:01.591Z,18.80
2017-08-19T21:38:28.009Z,18.80
2017-08-19T21:40:54.398Z,18.80
2017-08-19T21:43:20.787Z,18.70
2017-08-19T21:45:53.437Z,18.70
2017-08-19T21:48:20.582Z,18.70
2017-08-19T21:50:47.562Z,18.70
2017-08-19T21:53:14.000Z,18.70
2017-08-19T21:55:40.393Z,18.70
2017-08-19T21:58:06.800Z,18.80
2017-08-19T22:00:33.222Z,18.70
2017-08-19T22:02:59.622Z,18.80
2017-08-19T22:05:27.194Z,18.80
2017-08-19T22:07:53.618Z,18.80
2017-08-19T22:10:20.039Z,18.90
2017-08-19T22:12:47.183Z,19.00
2017-08-19T22:15:13.606Z,19.00
2017-08-19T22:17:40.042Z,19.00
2017-08-19T22:20:06.443Z,18.90
2017-08-19T22:22:32.848Z,18.80
2017-08-19T22:24:59.257Z,18.80
2017-08-19T22:27:26.393Z,18.90
2017-08-19T22:29:52.863Z,18.80
2017-08-19T22:32:19.315Z,18.90
2017-08-19T22:34:45.704Z,18.90
2017-08-19T22:37:12.867Z,18.80
2017-08-19T22:39:50.689Z,18.80
2017-08-19T22:42:17.138Z,18.80
2017-08-19T22:44:43.543Z,18.80
2017-08-19T22:47:09.931Z,18.80
2017-08-19T22:49:36.357Z,18.70
2017-08-19T22:52:02.771Z,18.70
2017-08-19T22:54:29.175Z,18.70
2017-08-19T22:56:55.661Z,18.70
2017-08-19T22:59:22.087Z,18.60
2017-08-19T23:01:48.494Z,18.60
2017-08-19T23:04:14.903Z,18.70
2017-08-19T23:06:41.320Z,18.70
2017-08-19T23:09:08.500Z,18.60
2017-08-19T23:11:34.935Z,18.60
2017-08-19T23:14:01.334Z,18.60
2017-08-19T23:16:28.498Z,18.60
2017-08-19T23:18:54.890Z,18.50
2017-08-19T23:21:21.286Z,18.60
2017-08-19T23:23:47.703Z,18.50
2017-08-19T23:26:14.139Z,18.50
2017-08-19T23:28:40.563Z,18.60
2017-08-19T23:31:06.985Z,18.50
2017-08-19T23:33:34.294Z,18.60
2017-08-19T23:36:01.475Z,18.50
2017-08-19T23:38:28.645Z,18.50
2017-08-19T23:40:55.071Z,18.50
2017-08-19T23:43:22.194Z,18.50
2017-08-19T23:45:48.584Z,18.50
2017-08-19T23:48:14.987Z,18.50
2017-08-19T23:50:41.391Z,18.40
2017-08-19T23:53:07.816Z,18.40
2017-08-19T23:55:34.240Z,18.40
2017-08-19T23:58:00.704Z,18.40
